createdAt,value
2023-04-29T00:00:44.901Z,1006.21
2023-04-29T00:01:44.889Z,1006.21
2023-04-29T00:02:44.994Z,1006.17
2023-04-29T00:03:45.036Z,1006.13
2023-04-29T00:04:45.048Z,1006.12
2023-04-29T00:05:44.952Z,1006.10
2023-04-29T00:06:44.833Z,1006.06
2023-04-29T00:07:44.831Z,1006.04
2023-04-29T00:08:44.814Z,1006.06
2023-04-29T00:09:44.834Z,1006.01
2023-04-29T00:10:44.798Z,1006.08
2023-04-29T00:11:44.787Z,1005.93
2023-04-29T00:12:44.789Z,1006.01
2023-04-29T00:13:44.761Z,1006.00
2023-04-29T00:14:44.778Z,1006.02
2023-04-29T00:15:44.739Z,1005.90
2023-04-29T00:16:44.783Z,1005.99
2023-04-29T00:17:44.755Z,1005.99
2023-04-29T00:18:44.706Z,1005.95
2023-04-29T00:19:44.690Z,1005.95
2023-04-29T00:20:44.718Z,1005.89
2023-04-29T00:21:44.671Z,1005.90
2023-04-29T00:22:44.670Z,1005.96
2023-04-29T00:23:44.653Z,1005.86
2023-04-29T00:24:44.659Z,1005.83
2023-04-29T00:25:44.662Z,1005.77
2023-04-29T00:26:44.622Z,1005.73
2023-04-29T00:27:44.609Z,1005.67
2023-04-29T00:28:44.629Z,1005.75
2023-04-29T00:29:44.598Z,1005.80
2023-04-29T00:30:44.633Z,1005.72
2023-04-29T00:31:44.562Z,1005.72
2023-04-29T00:32:44.601Z,1005.77
2023-04-29T00:33:44.546Z,1005.78
2023-04-29T00:34:44.532Z,1005.73
2023-04-29T00:35:44.551Z,1005.74
2023-04-29T00:36:44.523Z,1005.74
2023-04-29T00:37:44.500Z,1005.81
2023-04-29T00:38:44.488Z,1005.85
2023-04-29T00:39:44.498Z,1005.84
2023-04-29T00:40:44.464Z,1005.85
2023-04-29T00:41:44.456Z,1005.93
2023-04-29T00:42:44.482Z,1005.87
2023-04-29T00:43:44.438Z,1005.88
2023-04-29T00:44:44.448Z,1005.81
2023-04-29T00:45:44.437Z,1005.85
2023-04-29T00:46:44.456Z,1005.80
2023-04-29T00:47:44.439Z,1005.83
2023-04-29T00:48:44.378Z,1005.88
2023-04-29T00:49:44.395Z,1005.88
2023-04-29T00:50:44.384Z,1005.86
2023-04-29T00:51:44.350Z,1005.84
2023-04-29T00:52:44.340Z,1005.83
2023-04-29T00:53:44.325Z,1005.82
2023-04-29T00:54:44.347Z,1005.87
2023-04-29T00:55:44.339Z,1005.85
2023-04-29T00:56:44.301Z,1005.82
2023-04-29T00:57:44.292Z,1005.85
2023-04-29T00:58:44.271Z,1005.85
2023-04-29T00:59:44.280Z,1005.92
2023-04-29T01:00:44.331Z,1005.90
2023-04-29T01:01:44.284Z,1005.92
2023-04-29T01:02:44.354Z,1005.90
2023-04-29T01:03:44.427Z,1005.91
2023-04-29T01:04:44.333Z,1005.89
2023-04-29T01:05:44.198Z,1005.85
2023-04-29T01:06:44.191Z,1005.90
2023-04-29T01:07:44.212Z,1005.90
2023-04-29T01:08:44.176Z,1005.88
2023-04-29T01:09:44.152Z,1005.83
2023-04-29T01:10:44.147Z,1005.83
2023-04-29T01:11:44.130Z,1005.84
2023-04-29T01:12:44.152Z,1005.74
2023-04-29T01:13:44.117Z,1005.69
2023-04-29T01:14:44.093Z,1005.61
2023-04-29T01:15:44.184Z,1005.58
2023-04-29T01:16:44.123Z,1005.51
2023-04-29T01:17:44.126Z,1005.49
2023-04-29T01:18:44.053Z,1005.55
2023-04-29T01:19:44.048Z,1005.51
2023-04-29T01:20:44.031Z,1005.59
2023-04-29T01:21:44.048Z,1005.59
2023-04-29T01:22:44.009Z,1005.65
2023-04-29T01:23:44.023Z,1005.64
2023-04-29T01:24:43.987Z,1005.70
2023-04-29T01:25:43.987Z,1005.76
2023-04-29T01:26:43.992Z,1005.76
2023-04-29T01:27:43.966Z,1005.82
2023-04-29T01:28:43.969Z,1005.79
2023-04-29T01:29:43.934Z,1005.82
2023-04-29T01:30:43.925Z,1005.84
2023-04-29T01:31:43.985Z,1005.77
2023-04-29T01:32:43.988Z,1005.81
2023-04-29T01:33:43.917Z,1005.80
2023-04-29T01:34:43.882Z,1005.80
2023-04-29T01:35:43.873Z,1005.81
2023-04-29T01:36:43.887Z,1005.85
2023-04-29T01:37:43.852Z,1005.81
2023-04-29T01:38:43.839Z,1005.81
2023-04-29T01:39:43.837Z,1005.76
2023-04-29T01:40:43.812Z,1005.75
2023-04-29T01:41:43.833Z,1005.71
2023-04-29T01:42:43.799Z,1005.65
2023-04-29T01:43:43.821Z,1005.61
2023-04-29T01:44:43.787Z,1005.55
2023-04-29T01:45:43.764Z,1005.59
2023-04-29T01:46:43.801Z,1005.57
2023-04-29T01:47:43.762Z,1005.56
2023-04-29T01:48:43.755Z,1005.62
2023-04-29T01:49:43.739Z,1005.60
2023-04-29T01:50:43.696Z,1005.63
2023-04-29T01:51:43.711Z,1005.60
2023-04-29T01:52:43.687Z,1005.49
2023-04-29T01:53:43.674Z,1005.49
2023-04-29T01:54:43.661Z,1005.53
2023-04-29T01:55:43.647Z,1005.51
2023-04-29T01:56:43.670Z,1005.59
2023-04-29T01:57:43.643Z,1005.56
2023-04-29T01:58:43.616Z,1005.60
2023-04-29T01:59:43.631Z,1005.59
2023-04-29T02:00:43.670Z,1005.60
2023-04-29T02:01:43.587Z,1005.62
2023-04-29T02:02:43.699Z,1005.57
2023-04-29T02:03:43.796Z,1005.55
2023-04-29T02:04:43.661Z,1005.53
2023-04-29T02:05:43.537Z,1005.56
2023-04-29T02:06:43.533Z,1005.58
2023-04-29T02:07:43.518Z,1005.58
2023-04-29T02:08:43.512Z,1005.56
2023-04-29T02:09:43.515Z,1005.59
2023-04-29T02:10:43.490Z,1005.59
2023-04-29T02:11:43.478Z,1005.61
2023-04-29T02:12:43.469Z,1005.55
2023-04-29T02:13:43.452Z,1005.57
2023-04-29T02:14:43.448Z,1005.54
2023-04-29T02:15:43.453Z,1005.55
2023-04-29T02:16:43.589Z,1005.55
2023-04-29T02:17:43.455Z,1005.61
2023-04-29T02:18:43.400Z,1005.56
2023-04-29T02:19:43.404Z,1005.61
2023-04-29T02:20:43.428Z,1005.55
2023-04-29T02:21:43.382Z,1005.54
2023-04-29T02:22:43.355Z,1005.51
2023-04-29T02:23:43.373Z,1005.51
2023-04-29T02:24:43.350Z,1005.43
2023-04-29T02:25:43.341Z,1005.40
2023-04-29T02:26:43.311Z,1005.45
2023-04-29T02:27:43.304Z,1005.39
2023-04-29T02:28:43.351Z,1005.36
2023-04-29T02:29:43.292Z,1005.35
2023-04-29T02:30:43.322Z,1005.35
2023-04-29T02:31:43.307Z,1005.34
2023-04-29T02:32:43.270Z,1005.36
2023-04-29T02:33:43.236Z,1005.33
2023-04-29T02:34:43.239Z,1005.38
2023-04-29T02:35:43.239Z,1005.37
2023-04-29T02:36:43.231Z,1005.39
2023-04-29T02:37:43.198Z,1005.36
2023-04-29T02:38:43.188Z,1005.38
2023-04-29T02:39:43.183Z,1005.38
2023-04-29T02:40:43.196Z,1005.36
2023-04-29T02:41:43.154Z,1005.38
2023-04-29T02:42:43.139Z,1005.41
2023-04-29T02:43:43.154Z,1005.39
2023-04-29T02:44:43.124Z,1005.41
2023-04-29T02:45:43.179Z,1005.37
2023-04-29T02:46:43.098Z,1005.34
2023-04-29T02:47:43.207Z,1005.35
2023-04-29T02:48:43.098Z,1005.37
2023-04-29T02:49:43.078Z,1005.40
2023-04-29T02:50:43.051Z,1005.40
2023-04-29T02:51:43.053Z,1005.38
2023-04-29T02:52:43.060Z,1005.41
2023-04-29T02:53:43.041Z,1005.33
2023-04-29T02:54:43.010Z,1005.34
2023-04-29T02:55:43.004Z,1005.34
2023-04-29T02:56:42.987Z,1005.35
2023-04-29T02:57:42.977Z,1005.31
2023-04-29T02:58:42.992Z,1005.31
2023-04-29T02:59:42.954Z,1005.33
2023-04-29T03:00:42.953Z,1005.33
2023-04-29T03:01:42.973Z,1005.40
2023-04-29T03:02:43.050Z,1005.33
2023-04-29T03:03:43.185Z,1005.33
2023-04-29T03:04:42.914Z,1005.32
2023-04-29T03:05:42.884Z,1005.33
2023-04-29T03:06:42.883Z,1005.28
2023-04-29T03:07:42.863Z,1005.27
2023-04-29T03:08:42.889Z,1005.25
2023-04-29T03:09:42.871Z,1005.30
2023-04-29T03:10:42.847Z,1005.29
2023-04-29T03:11:42.839Z,1005.30
2023-04-29T03:12:42.810Z,1005.33
2023-04-29T03:13:42.804Z,1005.25
2023-04-29T03:14:42.814Z,1005.29
2023-04-29T03:15:42.779Z,1005.26
2023-04-29T03:16:42.823Z,1005.28
2023-04-29T03:17:42.816Z,1005.26
2023-04-29T03:18:42.749Z,1005.29
2023-04-29T03:19:42.759Z,1005.32
2023-04-29T03:20:42.737Z,1005.29
2023-04-29T03:21:42.748Z,1005.32
2023-04-29T03:22:42.715Z,1005.27
2023-04-29T03:23:42.686Z,1005.28
2023-04-29T03:24:42.723Z,1005.26
2023-04-29T03:25:42.710Z,1005.28
2023-04-29T03:26:42.664Z,1005.25
2023-04-29T03:27:42.649Z,1005.32
2023-04-29T03:28:42.637Z,1005.25
2023-04-29T03:29:42.649Z,1005.30
2023-04-29T03:30:42.620Z,1005.30
2023-04-29T03:31:42.734Z,1005.30
2023-04-29T03:32:42.627Z,1005.32
2023-04-29T03:33:42.588Z,1005.31
2023-04-29T03:34:42.569Z,1005.27
2023-04-29T03:35:42.562Z,1005.28
2023-04-29T03:36:42.589Z,1005.29
2023-04-29T03:37:42.533Z,1005.31
2023-04-29T03:38:42.528Z,1005.30
2023-04-29T03:39:42.511Z,1005.27
2023-04-29T03:40:42.525Z,1005.25
2023-04-29T03:41:42.486Z,1005.30
2023-04-29T03:42:42.514Z,1005.20
2023-04-29T03:43:42.472Z,1005.24
2023-04-29T03:44:42.453Z,1005.20
2023-04-29T03:45:42.447Z,1005.20
2023-04-29T03:46:42.579Z,1005.22
2023-04-29T03:47:42.469Z,1005.22
2023-04-29T03:48:42.417Z,1005.24
2023-04-29T03:49:42.398Z,1005.24
2023-04-29T03:50:42.389Z,1005.22
2023-04-29T03:51:42.378Z,1005.24
2023-04-29T03:52:42.401Z,1005.23
2023-04-29T03:53:42.353Z,1005.24
2023-04-29T03:54:42.370Z,1005.22
2023-04-29T03:55:42.333Z,1005.22
2023-04-29T03:56:42.344Z,1005.20
2023-04-29T03:57:42.746Z,1005.21
2023-04-29T03:58:42.303Z,1005.25
2023-04-29T03:59:42.312Z,1005.18
2023-04-29T04:00:42.278Z,1005.21
2023-04-29T04:01:42.305Z,1005.22
2023-04-29T04:02:42.588Z,1005.21
2023-04-29T04:03:42.399Z,1005.23
2023-04-29T04:04:42.487Z,1005.21
2023-04-29T04:05:42.227Z,1005.29
2023-04-29T04:06:42.211Z,1005.26
2023-04-29T04:07:42.194Z,1005.27
2023-04-29T04:08:42.226Z,1005.27
2023-04-29T04:09:42.182Z,1005.27
2023-04-29T04:10:42.183Z,1005.28
2023-04-29T04:11:42.200Z,1005.28
2023-04-29T04:12:44.259Z,1005.30
2023-04-29T04:13:42.152Z,1005.25
2023-04-29T04:14:42.127Z,1005.29
2023-04-29T04:15:42.120Z,1005.31
2023-04-29T04:16:42.274Z,1005.32
2023-04-29T04:17:42.152Z,1005.31
2023-04-29T04:18:42.109Z,1005.34
2023-04-29T04:19:42.096Z,1005.33
2023-04-29T04:20:42.070Z,1005.33
2023-04-29T04:21:42.073Z,1005.32
2023-04-29T04:22:42.091Z,1005.39
2023-04-29T04:23:42.050Z,1005.38
2023-04-29T04:24:42.050Z,1005.35
2023-04-29T04:25:42.003Z,1005.38
2023-04-29T04:26:41.992Z,1005.35
2023-04-29T04:27:41.978Z,1005.33
2023-04-29T04:28:42.016Z,1005.33
2023-04-29T04:29:41.991Z,1005.38
2023-04-29T04:30:41.951Z,1005.31
2023-04-29T04:31:41.997Z,1005.31
2023-04-29T04:32:41.970Z,1005.31
2023-04-29T04:33:41.911Z,1005.36
2023-04-29T04:34:41.931Z,1005.36
2023-04-29T04:35:41.898Z,1005.35
2023-04-29T04:36:41.888Z,1005.32
2023-04-29T04:37:41.872Z,1005.34
2023-04-29T04:38:41.882Z,1005.31
2023-04-29T04:39:41.881Z,1005.37
2023-04-29T04:40:41.856Z,1005.28
2023-04-29T04:41:41.835Z,1005.36
2023-04-29T04:42:41.853Z,1005.34
2023-04-29T04:43:41.814Z,1005.32
2023-04-29T04:44:41.857Z,1005.30
2023-04-29T04:45:41.806Z,1005.34
2023-04-29T04:46:41.782Z,1005.38
2023-04-29T04:47:41.802Z,1005.37
2023-04-29T04:48:41.765Z,1005.35
2023-04-29T04:49:41.770Z,1005.39
2023-04-29T04:50:41.740Z,1005.37
2023-04-29T04:51:41.723Z,1005.35
2023-04-29T04:52:41.735Z,1005.36
2023-04-29T04:53:41.703Z,1005.35
2023-04-29T04:54:41.691Z,1005.33
2023-04-29T04:55:41.699Z,1005.41
2023-04-29T04:56:41.679Z,1005.38
2023-04-29T04:57:41.669Z,1005.35
2023-04-29T04:58:41.656Z,1005.38
2023-04-29T04:59:41.658Z,1005.43
2023-04-29T05:00:41.666Z,1005.39
2023-04-29T05:01:41.838Z,1005.42
2023-04-29T05:02:41.792Z,1005.42
2023-04-29T05:03:41.799Z,1005.44
2023-04-29T05:04:41.582Z,1005.45
2023-04-29T05:05:41.599Z,1005.43
2023-04-29T05:06:41.562Z,1005.40
2023-04-29T05:07:41.551Z,1005.47
2023-04-29T05:08:41.563Z,1005.41
2023-04-29T05:09:41.524Z,1005.44
2023-04-29T05:10:41.545Z,1005.47
2023-04-29T05:11:41.530Z,1005.45
2023-04-29T05:12:41.554Z,1005.44
2023-04-29T05:13:41.528Z,1005.46
2023-04-29T05:14:41.479Z,1005.47
2023-04-29T05:15:41.476Z,1005.48
2023-04-29T05:16:41.518Z,1005.45
2023-04-29T05:17:41.520Z,1005.43
2023-04-29T05:18:41.447Z,1005.47
2023-04-29T05:19:41.460Z,1005.40
2023-04-29T05:20:41.450Z,1005.43
2023-04-29T05:21:41.412Z,1005.43
2023-04-29T05:22:41.401Z,1005.55
2023-04-29T05:23:41.424Z,1005.52
2023-04-29T05:24:41.380Z,1005.48
2023-04-29T05:25:41.354Z,1005.52
2023-04-29T05:26:41.347Z,1005.52
2023-04-29T05:27:41.328Z,1005.54
2023-04-29T05:28:41.361Z,1005.53
2023-04-29T05:29:41.355Z,1005.52
2023-04-29T05:30:41.312Z,1005.53
2023-04-29T05:31:41.292Z,1005.55
2023-04-29T05:32:41.318Z,1005.56
2023-04-29T05:33:41.265Z,1005.54
2023-04-29T05:34:41.289Z,1005.58
2023-04-29T05:35:41.244Z,1005.57
2023-04-29T05:36:41.247Z,1005.59
2023-04-29T05:37:41.224Z,1005.58
2023-04-29T05:38:41.236Z,1005.56
2023-04-29T05:39:41.206Z,1005.58
2023-04-29T05:40:41.224Z,1005.58
2023-04-29T05:41:41.185Z,1005.62
2023-04-29T05:42:41.174Z,1005.62
2023-04-29T05:43:41.165Z,1005.54
2023-04-29T05:44:41.152Z,1005.61
2023-04-29T05:45:41.161Z,1005.62
2023-04-29T05:46:41.218Z,1005.61
2023-04-29T05:47:41.207Z,1005.60
2023-04-29T05:48:41.133Z,1005.64
2023-04-29T05:49:41.114Z,1005.67
2023-04-29T05:50:41.083Z,1005.65
2023-04-29T05:51:41.075Z,1005.65
2023-04-29T05:52:41.065Z,1005.67
2023-04-29T05:53:41.051Z,1005.66
2023-04-29T05:54:41.080Z,1005.60
2023-04-29T05:55:41.034Z,1005.66
2023-04-29T05:56:41.016Z,1005.65
2023-04-29T05:57:41.021Z,1005.65
2023-04-29T05:58:41.006Z,1005.68
2023-04-29T05:59:41.009Z,1005.65
2023-04-29T06:00:40.971Z,1005.71
2023-04-29T06:01:40.973Z,1005.68
2023-04-29T06:02:50.652Z,1005.71
2023-04-29T06:03:42.090Z,1005.74
2023-04-29T06:04:41.586Z,1005.76
2023-04-29T06:05:41.432Z,1005.73
2023-04-29T06:06:40.909Z,1005.71
2023-04-29T06:07:40.905Z,1005.72
2023-04-29T06:08:40.889Z,1005.72
2023-04-29T06:09:40.906Z,1005.76
2023-04-29T06:10:40.890Z,1005.77
2023-04-29T06:11:40.883Z,1005.71
2023-04-29T06:12:40.849Z,1005.73
2023-04-29T06:13:40.850Z,1005.77
2023-04-29T06:14:40.846Z,1005.79
2023-04-29T06:15:40.815Z,1005.81
2023-04-29T06:16:41.042Z,1005.81
2023-04-29T06:17:40.826Z,1005.83
2023-04-29T06:18:40.778Z,1005.85
2023-04-29T06:19:40.906Z,1005.80
2023-04-29T06:20:40.782Z,1005.86
2023-04-29T06:21:40.749Z,1005.82
2023-04-29T06:22:40.734Z,1005.82
2023-04-29T06:23:40.733Z,1005.88
2023-04-29T06:24:40.742Z,1005.84
2023-04-29T06:25:40.712Z,1005.93
2023-04-29T06:26:40.706Z,1005.89
2023-04-29T06:27:40.683Z,1005.91
2023-04-29T06:28:40.692Z,1005.90
2023-04-29T06:29:40.664Z,1005.94
2023-04-29T06:30:40.670Z,1005.95
2023-04-29T06:31:40.671Z,1005.99
2023-04-29T06:32:40.678Z,1005.99
2023-04-29T06:33:40.640Z,1006.04
2023-04-29T06:34:40.615Z,1005.97
2023-04-29T06:35:40.629Z,1005.99
2023-04-29T06:36:40.606Z,1006.06
2023-04-29T06:37:40.587Z,1006.04
2023-04-29T06:38:40.570Z,1006.12
2023-04-29T06:39:40.556Z,1006.06
2023-04-29T06:40:40.566Z,1006.05
2023-04-29T06:41:40.542Z,1006.08
2023-04-29T06:42:40.520Z,1006.10
2023-04-29T06:43:40.509Z,1006.10
2023-04-29T06:44:40.502Z,1006.11
2023-04-29T06:45:40.510Z,1006.09
2023-04-29T06:46:40.580Z,1006.14
2023-04-29T06:47:40.546Z,1006.11
2023-04-29T06:48:40.499Z,1006.13
2023-04-29T06:49:40.462Z,1006.17
2023-04-29T06:50:40.478Z,1006.12
2023-04-29T06:51:40.440Z,1006.18
2023-04-29T06:52:40.447Z,1006.16
2023-04-29T06:53:40.396Z,1006.18
2023-04-29T06:54:40.383Z,1006.26
2023-04-29T06:55:40.414Z,1006.22
2023-04-29T06:56:40.382Z,1006.28
2023-04-29T06:57:40.435Z,1006.25
2023-04-29T06:58:40.351Z,1006.22
2023-04-29T06:59:40.352Z,1006.32
2023-04-29T07:00:40.342Z,1006.33
2023-04-29T07:01:43.399Z,1006.33
2023-04-29T07:02:40.450Z,1006.32
2023-04-29T07:03:40.550Z,1006.35
2023-04-29T07:04:40.358Z,1006.35
2023-04-29T07:05:40.274Z,1006.36
2023-04-29T07:06:40.288Z,1006.34
2023-04-29T07:07:40.250Z,1006.38
2023-04-29T07:08:40.265Z,1006.40
2023-04-29T07:09:40.270Z,1006.36
2023-04-29T07:10:40.220Z,1006.32
2023-04-29T07:11:40.211Z,1006.45
2023-04-29T07:12:40.191Z,1006.34
2023-04-29T07:13:40.179Z,1006.44
2023-04-29T07:14:40.202Z,1006.43
2023-04-29T07:15:40.174Z,1006.47
2023-04-29T07:16:40.218Z,1006.45
2023-04-29T07:17:40.208Z,1006.43
2023-04-29T07:18:40.129Z,1006.46
2023-04-29T07:19:40.126Z,1006.51
2023-04-29T07:20:40.140Z,1006.50
2023-04-29T07:21:40.134Z,1006.52
2023-04-29T07:22:40.088Z,1006.49
2023-04-29T07:23:40.102Z,1006.47
2023-04-29T07:24:40.111Z,1006.49
2023-04-29T07:25:40.061Z,1006.50
2023-04-29T07:26:40.043Z,1006.56
2023-04-29T07:27:40.034Z,1006.57
2023-04-29T07:28:40.024Z,1006.61
2023-04-29T07:29:40.039Z,1006.57
2023-04-29T07:30:40.002Z,1006.61
2023-04-29T07:31:39.993Z,1006.65
2023-04-29T07:32:40.010Z,1006.62
2023-04-29T07:33:39.972Z,1006.61
2023-04-29T07:34:39.980Z,1006.65
2023-04-29T07:35:39.977Z,1006.67
2023-04-29T07:36:39.961Z,1006.68
2023-04-29T07:37:41.080Z,1006.69
2023-04-29T07:38:39.905Z,1006.69
2023-04-29T07:39:39.909Z,1006.75
2023-04-29T07:40:39.913Z,1006.72
2023-04-29T07:41:39.886Z,1006.77
2023-04-29T07:42:39.905Z,1006.71
2023-04-29T07:43:42.212Z,1006.79
2023-04-29T07:44:39.845Z,1006.80
2023-04-29T07:45:39.839Z,1006.85
2023-04-29T07:46:39.938Z,1006.90
2023-04-29T07:47:39.871Z,1006.87
2023-04-29T07:48:39.825Z,1006.88
2023-04-29T07:49:39.802Z,1006.89
2023-04-29T07:50:39.780Z,1006.95
2023-04-29T07:51:39.769Z,1007.01
2023-04-29T07:52:39.782Z,1006.91
2023-04-29T07:53:39.767Z,1006.89
2023-04-29T07:54:39.728Z,1006.93
2023-04-29T07:55:39.738Z,1007.02
2023-04-29T07:56:39.824Z,1007.00
2023-04-29T07:57:39.728Z,1007.03
2023-04-29T07:58:39.802Z,1007.09
2023-04-29T07:59:39.687Z,1007.07
2023-04-29T08:00:39.670Z,1007.10
2023-04-29T08:01:39.658Z,1007.07
2023-04-29T08:02:39.736Z,1007.13
2023-04-29T08:03:41.546Z,1007.18
2023-04-29T08:04:39.941Z,1007.16
2023-04-29T08:05:39.790Z,1007.22
2023-04-29T08:06:39.626Z,1007.21
2023-04-29T08:07:39.593Z,1007.20
2023-04-29T08:08:39.605Z,1007.28
2023-04-29T08:09:39.566Z,1007.32
2023-04-29T08:10:39.558Z,1007.30
2023-04-29T08:11:39.584Z,1007.28
2023-04-29T08:12:39.569Z,1007.32
2023-04-29T08:13:39.531Z,1007.31
2023-04-29T08:14:39.553Z,1007.35
2023-04-29T08:15:39.507Z,1007.35
2023-04-29T08:16:39.536Z,1007.42
2023-04-29T08:17:39.532Z,1007.44
2023-04-29T08:18:39.473Z,1007.42
2023-04-29T08:19:39.466Z,1007.49
2023-04-29T08:20:39.473Z,1007.40
2023-04-29T08:21:39.451Z,1007.48
2023-04-29T08:22:39.431Z,1007.45
2023-04-29T08:23:39.455Z,1007.54
2023-04-29T08:24:39.436Z,1007.49
2023-04-29T08:25:39.401Z,1007.49
2023-04-29T08:26:39.391Z,1007.60
2023-04-29T08:27:39.380Z,1007.62
2023-04-29T08:28:39.384Z,1007.63
2023-04-29T08:29:39.391Z,1007.64
2023-04-29T08:30:39.339Z,1007.72
2023-04-29T08:31:39.349Z,1007.73
2023-04-29T08:32:39.393Z,1007.75
2023-04-29T08:33:39.342Z,1007.78
2023-04-29T08:34:39.300Z,1007.75
2023-04-29T08:35:39.291Z,1007.86
2023-04-29T08:36:39.280Z,1007.78
2023-04-29T08:37:39.269Z,1007.87
2023-04-29T08:38:39.281Z,1007.82
2023-04-29T08:39:39.254Z,1007.84
2023-04-29T08:40:39.236Z,1007.91
2023-04-29T08:41:39.234Z,1007.91
2023-04-29T08:42:39.227Z,1007.95
2023-04-29T08:43:39.227Z,1007.92
2023-04-29T08:44:39.212Z,1007.94
2023-04-29T08:45:39.204Z,1008.02
2023-04-29T08:46:39.171Z,1007.97
2023-04-29T08:47:39.231Z,1008.00
2023-04-29T08:48:39.246Z,1007.99
2023-04-29T08:49:39.140Z,1008.05
2023-04-29T08:50:39.124Z,1008.08
2023-04-29T08:51:39.123Z,1008.05
2023-04-29T08:52:39.109Z,1008.03
2023-04-29T08:53:39.122Z,1008.08
2023-04-29T08:54:39.097Z,1008.17
2023-04-29T08:55:39.080Z,1008.11
2023-04-29T08:56:39.064Z,1008.17
2023-04-29T08:57:39.046Z,1008.15
2023-04-29T08:58:39.064Z,1008.15
2023-04-29T08:59:39.032Z,1008.21
2023-04-29T09:00:39.037Z,1008.22
2023-04-29T09:01:39.150Z,1008.24
2023-04-29T09:02:39.051Z,1008.27
2023-04-29T09:03:39.160Z,1008.29
2023-04-29T09:04:39.124Z,1008.30
2023-04-29T09:05:38.972Z,1008.26
2023-04-29T09:06:38.959Z,1008.37
2023-04-29T09:07:38.947Z,1008.38
2023-04-29T09:08:38.927Z,1008.45
2023-04-29T09:09:38.965Z,1008.39
2023-04-29T09:10:38.907Z,1008.45
2023-04-29T09:11:38.908Z,1008.46
2023-04-29T09:12:38.899Z,1008.52
2023-04-29T09:13:38.889Z,1008.51
2023-04-29T09:14:38.889Z,1008.58
2023-04-29T09:15:38.857Z,1008.63
2023-04-29T09:16:38.884Z,1008.58
2023-04-29T09:17:38.923Z,1008.55
2023-04-29T09:18:38.818Z,1008.55
2023-04-29T09:19:38.841Z,1008.61
2023-04-29T09:20:38.796Z,1008.60
2023-04-29T09:21:38.805Z,1008.58
2023-04-29T09:22:38.778Z,1008.64
2023-04-29T09:23:38.774Z,1008.58
2023-04-29T09:24:38.785Z,1008.62
2023-04-29T09:25:38.745Z,1008.59
2023-04-29T09:26:38.735Z,1008.62
2023-04-29T09:27:38.724Z,1008.63
2023-04-29T09:28:38.708Z,1008.71
2023-04-29T09:29:38.743Z,1008.73
2023-04-29T09:30:38.688Z,1008.70
2023-04-29T09:31:38.770Z,1008.75
2023-04-29T09:32:39.426Z,1008.78
2023-04-29T09:33:38.660Z,1008.77
2023-04-29T09:34:38.645Z,1008.76
2023-04-29T09:35:38.664Z,1008.81
2023-04-29T09:36:38.616Z,1008.80
2023-04-29T09:37:38.627Z,1008.86
2023-04-29T09:38:38.606Z,1008.86
2023-04-29T09:39:38.601Z,1008.87
2023-04-29T09:40:46.937Z,1008.95
2023-04-29T09:41:39.578Z,1008.93
2023-04-29T09:42:38.591Z,1008.93
2023-04-29T09:43:38.560Z,1008.98
2023-04-29T09:44:38.597Z,1008.96
2023-04-29T09:45:38.557Z,1009.05
2023-04-29T09:46:38.574Z,1008.97
2023-04-29T09:47:38.584Z,1008.99
2023-04-29T09:48:38.549Z,1009.03
2023-04-29T09:49:38.487Z,1009.09
2023-04-29T09:50:38.475Z,1009.05
2023-04-29T09:51:38.479Z,1009.06
2023-04-29T09:52:38.457Z,1009.08
2023-04-29T09:53:38.445Z,1009.10
2023-04-29T09:54:38.430Z,1009.08
2023-04-29T09:55:38.423Z,1009.15
2023-04-29T09:56:38.429Z,1009.05
2023-04-29T09:57:38.397Z,1009.14
2023-04-29T09:58:38.386Z,1009.13
2023-04-29T09:59:38.447Z,1009.16
2023-04-29T10:00:38.361Z,1009.15
2023-04-29T10:01:38.415Z,1009.22
2023-04-29T10:02:38.454Z,1009.24
2023-04-29T10:03:38.987Z,1009.24
2023-04-29T10:04:40.057Z,1009.29
2023-04-29T10:05:38.340Z,1009.27
2023-04-29T10:06:38.298Z,1009.30
2023-04-29T10:07:38.288Z,1009.32
2023-04-29T10:08:38.282Z,1009.32
2023-04-29T10:09:38.281Z,1009.28
2023-04-29T10:10:38.269Z,1009.31
2023-04-29T10:11:38.274Z,1009.36
2023-04-29T10:12:38.229Z,1009.37
2023-04-29T10:13:38.312Z,1009.35
2023-04-29T10:14:38.210Z,1009.40
2023-04-29T10:15:38.244Z,1009.42
2023-04-29T10:16:38.406Z,1009.41
2023-04-29T10:17:38.177Z,1009.42
2023-04-29T10:18:38.263Z,1009.50
2023-04-29T10:19:38.165Z,1009.43
2023-04-29T10:20:38.250Z,1009.43
2023-04-29T10:21:38.155Z,1009.47
2023-04-29T10:22:38.125Z,1009.48
2023-04-29T10:23:38.111Z,1009.38
2023-04-29T10:24:38.106Z,1009.47
2023-04-29T10:25:38.095Z,1009.45
2023-04-29T10:26:38.107Z,1009.46
2023-04-29T10:27:38.071Z,1009.52
2023-04-29T10:28:38.056Z,1009.47
2023-04-29T10:29:38.038Z,1009.45
2023-04-29T10:30:38.032Z,1009.50
2023-04-29T10:31:38.101Z,1009.53
2023-04-29T10:32:49.792Z,1009.51
2023-04-29T10:33:39.019Z,1009.59
2023-04-29T10:34:38.006Z,1009.60
2023-04-29T10:35:37.974Z,1009.60
2023-04-29T10:36:38.022Z,1009.55
2023-04-29T10:37:37.962Z,1009.59
2023-04-29T10:38:37.983Z,1009.62
2023-04-29T10:39:37.929Z,1009.58
2023-04-29T10:40:37.928Z,1009.59
2023-04-29T10:41:37.945Z,1009.58
2023-04-29T10:42:37.930Z,1009.67
2023-04-29T10:43:37.888Z,1009.64
2023-04-29T10:44:37.880Z,1009.66
2023-04-29T10:45:37.876Z,1009.66
2023-04-29T10:46:37.987Z,1009.65
2023-04-29T10:47:37.902Z,1009.69
2023-04-29T10:48:37.840Z,1009.62
2023-04-29T10:49:37.820Z,1009.68
2023-04-29T10:50:37.845Z,1009.75
2023-04-29T10:51:37.809Z,1009.70
2023-04-29T10:52:37.843Z,1009.75
2023-04-29T10:53:37.778Z,1009.80
2023-04-29T10:54:37.768Z,1009.77
2023-04-29T10:55:37.813Z,1009.71
2023-04-29T10:56:37.752Z,1009.76
2023-04-29T10:57:37.752Z,1009.79
2023-04-29T10:58:37.738Z,1009.78
2023-04-29T10:59:37.720Z,1009.77
2023-04-29T11:00:37.733Z,1009.73
2023-04-29T11:01:38.267Z,1009.73
2023-04-29T11:02:37.712Z,1009.72
2023-04-29T11:03:37.805Z,1009.78
2023-04-29T11:04:37.705Z,1009.77
2023-04-29T11:05:37.687Z,1009.82
2023-04-29T11:06:37.692Z,1009.82
2023-04-29T11:07:37.629Z,1009.79
2023-04-29T11:08:37.642Z,1009.87
2023-04-29T11:09:37.604Z,1009.85
2023-04-29T11:10:37.658Z,1009.93
2023-04-29T11:11:37.598Z,1009.92
2023-04-29T11:12:37.591Z,1009.92
2023-04-29T11:13:37.579Z,1009.88
2023-04-29T11:14:37.721Z,1009.90
2023-04-29T11:15:37.543Z,1009.90
2023-04-29T11:16:37.631Z,1009.84
2023-04-29T11:17:37.578Z,1009.91
2023-04-29T11:18:37.552Z,1009.89
2023-04-29T11:19:37.523Z,1009.87
2023-04-29T11:20:37.511Z,1009.88
2023-04-29T11:21:37.473Z,1009.83
2023-04-29T11:22:37.486Z,1009.89
2023-04-29T11:23:37.496Z,1009.86
2023-04-29T11:24:37.504Z,1009.84
2023-04-29T11:25:39.481Z,1009.84
2023-04-29T11:26:37.437Z,1009.87
2023-04-29T11:27:37.409Z,1009.90
2023-04-29T11:28:37.401Z,1009.92
2023-04-29T11:29:37.413Z,1009.93
2023-04-29T11:30:37.385Z,1009.93
2023-04-29T11:31:37.441Z,1009.96
2023-04-29T11:32:37.501Z,1009.95
2023-04-29T11:33:37.390Z,1010.01
2023-04-29T11:34:37.379Z,1010.04
2023-04-29T11:35:37.333Z,1010.02
2023-04-29T11:36:37.330Z,1009.99
2023-04-29T11:37:37.323Z,1009.98
2023-04-29T11:38:37.296Z,1010.07
2023-04-29T11:39:37.289Z,1010.06
2023-04-29T11:40:37.318Z,1009.97
2023-04-29T11:41:37.265Z,1010.04
2023-04-29T11:42:37.262Z,1010.04
2023-04-29T11:43:37.262Z,1010.04
2023-04-29T11:44:37.231Z,1010.12
2023-04-29T11:45:37.300Z,1010.05
2023-04-29T11:46:37.304Z,1010.12
2023-04-29T11:47:37.295Z,1010.09
2023-04-29T11:48:37.188Z,1010.15
2023-04-29T11:49:37.195Z,1010.19
2023-04-29T11:50:37.201Z,1010.16
2023-04-29T11:51:37.159Z,1010.17
2023-04-29T11:52:37.237Z,1010.21
2023-04-29T11:53:37.129Z,1010.19
2023-04-29T11:54:37.121Z,1010.19
2023-04-29T11:55:37.139Z,1010.20
2023-04-29T11:56:37.124Z,1010.22
2023-04-29T11:57:37.093Z,1010.27
2023-04-29T11:58:37.082Z,1010.26
2023-04-29T11:59:37.071Z,1010.31
2023-04-29T12:00:37.087Z,1010.28
2023-04-29T12:01:37.050Z,1010.33
2023-04-29T12:02:37.150Z,1010.41
2023-04-29T12:03:37.460Z,1010.32
2023-04-29T12:04:37.117Z,1010.37
2023-04-29T12:05:37.059Z,1010.36